sensor_id;sensor_type;location;lat;lon;timestamp;pressure;altitude;pressure_sealevel;temperature
69545;BMP180;56766;52.260;20.746;2022-09-13T00:01:31;100279.60;;;7.40
69545;BMP180;56766;52.260;20.746;2022-09-13T00:03:58;100275.00;;;7.30
69545;BMP180;56766;52.260;20.746;2022-09-13T00:06:25;100274.80;;;7.30
69545;BMP180;56766;52.260;20.746;2022-09-13T00:08:51;100273.40;;;7.30
69545;BMP180;56766;52.260;20.746;2022-09-13T00:11:24;100274.80;;;7.30
69545;BMP180;56766;52.260;20.746;2022-09-13T00:13:55;100273.60;;;7.20
69545;BMP180;56766;52.260;20.746;2022-09-13T00:16:26;100271.80;;;7.20
69545;BMP180;56766;52.260;20.746;2022-09-13T00:18:55;100270.80;;;7.10
69545;BMP180;56766;52.260;20.746;2022-09-13T00:21:23;100272.60;;;7.10
69545;BMP180;56766;52.260;20.746;2022-09-13T00:23:53;100264.60;;;7.10
69545;BMP180;56766;52.260;20.746;2022-09-13T00:26:27;100272.40;;;7.10
69545;BMP180;56766;52.260;20.746;2022-09-13T00:28:57;100271.40;;;7.00
69545;BMP180;56766;52.260;20.746;2022-09-13T00:31:27;100272.20;;;6.90
69545;BMP180;56766;52.260;20.746;2022-09-13T00:33:55;100273.20;;;6.90
69545;BMP180;56766;52.260;20.746;2022-09-13T00:36:23;100270.40;;;6.80
69545;BMP180;56766;52.260;20.746;2022-09-13T00:38:50;100273.20;;;6.80
69545;BMP180;56766;52.260;20.746;2022-09-13T00:41:19;100270.80;;;6.82
69545;BMP180;56766;52.260;20.746;2022-09-13T00:43:59;100273.60;;;6.90
69545;BMP180;56766;52.260;20.746;2022-09-13T00:46:41;100258.60;;;7.00
69545;BMP180;56766;52.260;20.746;2022-09-13T00:49:31;100262.00;;;7.02
69545;BMP180;56766;52.260;20.746;2022-09-13T00:52:09;100260.60;;;7.10
69545;BMP180;56766;52.260;20.746;2022-09-13T00:54:46;100266.80;;;7.10
69545;BMP180;56766;52.260;20.746;2022-09-13T00:57:20;100269.80;;;7.10
69545;BMP180;56766;52.260;20.746;2022-09-13T01:00:11;100264.20;;;7.20
69545;BMP180;56766;52.260;20.746;2022-09-13T01:02:52;100262.80;;;7.20
69545;BMP180;56766;52.260;20.746;2022-09-13T01:05:27;100264.60;;;7.30
69545;BMP180;56766;52.260;20.746;2022-09-13T01:07:58;100264.60;;;7.30
69545;BMP180;56766;52.260;20.746;2022-09-13T01:10:27;100260.60;;;7.30
69545;BMP180;56766;52.260;20.746;2022-09-13T01:13:11;100259.40;;;7.30
69545;BMP180;56766;52.260;20.746;2022-09-13T01:15:41;100255.80;;;7.38
69545;BMP180;56766;52.260;20.746;2022-09-13T01:18:10;100254.20;;;7.40
69545;BMP180;56766;52.260;20.746;2022-09-13T01:22:05;100253.40;;;7.40
69545;BMP180;56766;52.260;20.746;2022-09-13T01:27:14;100255.20;;;7.30
69545;BMP180;56766;52.260;20.746;2022-09-13T01:30:20;100254.00;;;7.20
69545;BMP180;56766;52.260;20.746;2022-09-13T01:41:43;100246.40;;;6.90
69545;BMP180;56766;52.260;20.746;2022-09-13T01:50:56;100247.00;;;6.70
69545;BMP180;56766;52.260;20.746;2022-09-13T01:53:38;100244.80;;;6.74
69545;BMP180;56766;52.260;20.746;2022-09-13T01:56:21;100246.80;;;6.70
69545;BMP180;56766;52.260;20.746;2022-09-13T01:59:05;100241.20;;;6.60
69545;BMP180;56766;52.260;20.746;2022-09-13T02:02:07;100235.40;;;6.56
69545;BMP180;56766;52.260;20.746;2022-09-13T02:04:49;100236.20;;;6.48
69545;BMP180;56766;52.260;20.746;2022-09-13T02:07:53;100233.00;;;6.40
69545;BMP180;56766;52.260;20.746;2022-09-13T02:10:31;100228.40;;;6.30
69545;BMP180;56766;52.260;20.746;2022-09-13T02:13:10;100225.20;;;6.20
69545;BMP180;56766;52.260;20.746;2022-09-13T02:15:46;100226.60;;;6.20
69545;BMP180;56766;52.260;20.746;2022-09-13T02:18:27;100223.00;;;6.20
69545;BMP180;56766;52.260;20.746;2022-09-13T02:21:08;100218.40;;;6.20
69545;BMP180;56766;52.260;20.746;2022-09-13T02:23:48;100219.20;;;6.16
69545;BMP180;56766;52.260;20.746;2022-09-13T02:26:19;100222.20;;;6.12
69545;BMP180;56766;52.260;20.746;2022-09-13T02:28:51;100217.20;;;6.14
69545;BMP180;56766;52.260;20.746;2022-09-13T02:31:33;100219.00;;;6.20
69545;BMP180;56766;52.260;20.746;2022-09-13T02:34:20;100215.40;;;6.20
69545;BMP180;56766;52.260;20.746;2022-09-13T02:36:52;100214.80;;;6.20
69545;BMP180;56766;52.260;20.746;2022-09-13T02:39:25;100219.80;;;6.20
69545;BMP180;56766;52.260;20.746;2022-09-13T02:44:37;100215.40;;;6.20
69545;BMP180;56766;52.260;20.746;2022-09-13T02:58:39;100196.60;;;6.10
69545;BMP180;56766;52.260;20.746;2022-09-13T03:01:10;100197.60;;;6.10
69545;BMP180;56766;52.260;20.746;2022-09-13T03:03:37;100199.80;;;6.20
69545;BMP180;56766;52.260;20.746;2022-09-13T03:06:04;100194.00;;;6.20
69545;BMP180;56766;52.260;20.746;2022-09-13T03:08:33;100192.80;;;6.26
69545;BMP180;56766;52.260;20.746;2022-09-13T03:14:39;100186.20;;;6.10
69545;BMP180;56766;52.260;20.746;2022-09-13T03:17:29;100183.00;;;6.06
69545;BMP180;56766;52.260;20.746;2022-09-13T03:28:01;100165.20;;;5.90
69545;BMP180;56766;52.260;20.746;2022-09-13T03:30:36;100165.80;;;5.90
69545;BMP180;56766;52.260;20.746;2022-09-13T03:33:27;100165.60;;;5.80
69545;BMP180;56766;52.260;20.746;2022-09-13T03:38:41;100161.80;;;5.70
69545;BMP180;56766;52.260;20.746;2022-09-13T03:41:21;100161.40;;;5.70
69545;BMP180;56766;52.260;20.746;2022-09-13T03:43:59;100159.40;;;5.66
69545;BMP180;56766;52.260;20.746;2022-09-13T03:46:40;100160.40;;;5.60
69545;BMP180;56766;52.260;20.746;2022-09-13T03:49:15;100154.60;;;5.60
69545;BMP180;56766;52.260;20.746;2022-09-13T03:51:48;100147.80;;;5.60
69545;BMP180;56766;52.260;20.746;2022-09-13T03:54:23;100152.20;;;5.60
69545;BMP180;56766;52.260;20.746;2022-09-13T03:57:16;100156.80;;;5.60
69545;BMP180;56766;52.260;20.746;2022-09-13T03:59:53;100152.40;;;5.60
69545;BMP180;56766;52.260;20.746;2022-09-13T04:02:23;100159.60;;;5.60
69545;BMP180;56766;52.260;20.746;2022-09-13T04:04:51;100152.60;;;5.52
69545;BMP180;56766;52.260;20.746;2022-09-13T04:07:22;100156.60;;;5.50
69545;BMP180;56766;52.260;20.746;2022-09-13T04:09:49;100161.00;;;5.50
69545;BMP180;56766;52.260;20.746;2022-09-13T04:12:17;100161.00;;;5.50
69545;BMP180;56766;52.260;20.746;2022-09-13T04:14:44;100163.00;;;5.50
69545;BMP180;56766;52.260;20.746;2022-09-13T04:17:13;100157.60;;;5.50
69545;BMP180;56766;52.260;20.746;2022-09-13T04:19:40;100160.80;;;5.50
69545;BMP180;56766;52.260;20.746;2022-09-13T04:22:07;100157.40;;;5.50
69545;BMP180;56766;52.260;20.746;2022-09-13T04:24:34;100157.00;;;5.50
69545;BMP180;56766;52.260;20.746;2022-09-13T04:27:01;100158.60;;;5.50
69545;BMP180;56766;52.260;20.746;2022-09-13T04:29:28;100157.20;;;5.50
69545;BMP180;56766;52.260;20.746;2022-09-13T04:31:57;100159.20;;;5.60
69545;BMP180;56766;52.260;20.746;2022-09-13T04:34:24;100152.00;;;5.62
69545;BMP180;56766;52.260;20.746;2022-09-13T04:36:52;100156.20;;;5.70
69545;BMP180;56766;52.260;20.746;2022-09-13T04:39:20;100161.20;;;5.80
69545;BMP180;56766;52.260;20.746;2022-09-13T04:41:48;100160.40;;;5.80
69545;BMP180;56766;52.260;20.746;2022-09-13T04:44:17;100157.80;;;5.90
69545;BMP180;56766;52.260;20.746;2022-09-13T04:46:47;100160.00;;;6.00
69545;BMP180;56766;52.260;20.746;2022-09-13T04:49:16;100153.40;;;6.00
69545;BMP180;56766;52.260;20.746;2022-09-13T04:51:45;100151.20;;;6.10
69545;BMP180;56766;52.260;20.746;2022-09-13T04:54:13;100149.80;;;6.20
69545;BMP180;56766;52.260;20.746;2022-09-13T04:56:40;100146.80;;;6.30
69545;BMP180;56766;52.260;20.746;2022-09-13T04:59:07;100149.40;;;6.40
69545;BMP180;56766;52.260;20.746;2022-09-13T05:01:37;100151.60;;;6.40
69545;BMP180;56766;52.260;20.746;2022-09-13T05:04:06;100156.40;;;6.50
69545;BMP180;56766;52.260;20.746;2022-09-13T05:06:34;100152.80;;;6.58
69545;BMP180;56766;52.260;20.746;2022-09-13T05:09:01;100157.40;;;6.60
69545;BMP180;56766;52.260;20.746;2022-09-13T05:11:29;100148.20;;;6.70
69545;BMP180;56766;52.260;20.746;2022-09-13T05:13:59;100146.00;;;6.84
69545;BMP180;56766;52.260;20.746;2022-09-13T05:16:30;100145.20;;;7.00
69545;BMP180;56766;52.260;20.746;2022-09-13T05:18:59;100142.60;;;7.20
69545;BMP180;56766;52.260;20.746;2022-09-13T05:21:26;100145.80;;;7.32
69545;BMP180;56766;52.260;20.746;2022-09-13T05:23:55;100147.00;;;7.50
69545;BMP180;56766;52.260;20.746;2022-09-13T05:26:26;100144.20;;;7.62
69545;BMP180;56766;52.260;20.746;2022-09-13T05:28:54;100146.80;;;7.80
69545;BMP180;56766;52.260;20.746;2022-09-13T05:31:28;100146.40;;;8.00
69545;BMP180;56766;52.260;20.746;2022-09-13T05:34:03;100155.20;;;8.20
69545;BMP180;56766;52.260;20.746;2022-09-13T05:36:31;100152.00;;;8.40
69545;BMP180;56766;52.260;20.746;2022-09-13T05:38:59;100145.40;;;8.50
69545;BMP180;56766;52.260;20.746;2022-09-13T05:41:26;100147.80;;;8.70
69545;BMP180;56766;52.260;20.746;2022-09-13T05:43:53;100147.20;;;8.90
69545;BMP180;56766;52.260;20.746;2022-09-13T05:46:21;100149.60;;;9.10
69545;BMP180;56766;52.260;20.746;2022-09-13T05:48:48;100137.80;;;9.26
69545;BMP180;56766;52.260;20.746;2022-09-13T05:51:19;100135.60;;;9.40
69545;BMP180;56766;52.260;20.746;2022-09-13T05:53:49;100133.80;;;9.60
69545;BMP180;56766;52.260;20.746;2022-09-13T05:56:20;100129.00;;;9.72
69545;BMP180;56766;52.260;20.746;2022-09-13T05:58:50;100124.00;;;9.92
69545;BMP180;56766;52.260;20.746;2022-09-13T06:01:25;100128.80;;;10.10
69545;BMP180;56766;52.260;20.746;2022-09-13T06:03:55;100128.20;;;10.30
69545;BMP180;56766;52.260;20.746;2022-09-13T06:06:24;100124.20;;;10.40
69545;BMP180;56766;52.260;20.746;2022-09-13T06:08:56;100125.00;;;10.50
69545;BMP180;56766;52.260;20.746;2022-09-13T06:11:25;100125.00;;;10.64
69545;BMP180;56766;52.260;20.746;2022-09-13T06:13:52;100122.80;;;10.80
69545;BMP180;56766;52.260;20.746;2022-09-13T06:16:19;100121.40;;;11.00
69545;BMP180;56766;52.260;20.746;2022-09-13T06:18:46;100122.60;;;11.10
69545;BMP180;56766;52.260;20.746;2022-09-13T06:21:18;100122.40;;;11.16
69545;BMP180;56766;52.260;20.746;2022-09-13T06:23:49;100122.40;;;11.20
69545;BMP180;56766;52.260;20.746;2022-09-13T06:26:21;100121.80;;;11.20
69545;BMP180;56766;52.260;20.746;2022-09-13T06:28:52;100118.20;;;11.20
69545;BMP180;56766;52.260;20.746;2022-09-13T06:31:23;100123.80;;;11.20
69545;BMP180;56766;52.260;20.746;2022-09-13T06:33:57;100118.60;;;11.20
69545;BMP180;56766;52.260;20.746;2022-09-13T06:36:24;100121.20;;;11.30
69545;BMP180;56766;52.260;20.746;2022-09-13T06:38:51;100120.80;;;11.32
69545;BMP180;56766;52.260;20.746;2022-09-13T06:41:22;100121.60;;;11.40
69545;BMP180;56766;52.260;20.746;2022-09-13T06:43:58;100119.00;;;11.50
69545;BMP180;56766;52.260;20.746;2022-09-13T06:46:32;100119.40;;;11.70
69545;BMP180;56766;52.260;20.746;2022-09-13T06:49:05;100118.00;;;11.80
69545;BMP180;56766;52.260;20.746;2022-09-13T06:51:34;100122.60;;;11.92
69545;BMP180;56766;52.260;20.746;2022-09-13T06:54:02;100125.40;;;12.10
69545;BMP180;56766;52.260;20.746;2022-09-13T06:56:35;100130.20;;;12.20
69545;BMP180;56766;52.260;20.746;2022-09-13T06:59:06;100122.20;;;12.40
69545;BMP180;56766;52.260;20.746;2022-09-13T07:01:43;100117.20;;;12.50
69545;BMP180;56766;52.260;20.746;2022-09-13T07:04:16;100121.40;;;12.64
69545;BMP180;56766;52.260;20.746;2022-09-13T07:06:48;100126.00;;;12.80
69545;BMP180;56766;52.260;20.746;2022-09-13T07:09:19;100118.40;;;12.90
69545;BMP180;56766;52.260;20.746;2022-09-13T07:11:49;100123.20;;;13.08
69545;BMP180;56766;52.260;20.746;2022-09-13T07:14:21;100124.60;;;13.20
69545;BMP180;56766;52.260;20.746;2022-09-13T07:16:49;100115.20;;;13.38
69545;BMP180;56766;52.260;20.746;2022-09-13T07:19:21;100117.00;;;13.50
69545;BMP180;56766;52.260;20.746;2022-09-13T07:21:55;100114.20;;;13.70
69545;BMP180;56766;52.260;20.746;2022-09-13T07:24:24;100114.00;;;13.90
69545;BMP180;56766;52.260;20.746;2022-09-13T07:26:51;100113.80;;;14.10
69545;BMP180;56766;52.260;20.746;2022-09-13T07:29:21;100117.60;;;14.32
69545;BMP180;56766;52.260;20.746;2022-09-13T07:31:52;100110.80;;;14.60
69545;BMP180;56766;52.260;20.746;2022-09-13T07:34:23;100113.20;;;14.80
69545;BMP180;56766;52.260;20.746;2022-09-13T07:36:50;100116.20;;;15.00
69545;BMP180;56766;52.260;20.746;2022-09-13T07:39:18;100106.60;;;15.28
69545;BMP180;56766;52.260;20.746;2022-09-13T07:41:45;100110.80;;;15.50
69545;BMP180;56766;52.260;20.746;2022-09-13T07:44:12;100114.00;;;15.78
69545;BMP180;56766;52.260;20.746;2022-09-13T07:46:39;100109.00;;;16.00
69545;BMP180;56766;52.260;20.746;2022-09-13T07:49:15;100101.40;;;16.30
69545;BMP180;56766;52.260;20.746;2022-09-13T07:51:44;100097.40;;;16.50
69545;BMP180;56766;52.260;20.746;2022-09-13T07:54:16;100095.20;;;16.70
69545;BMP180;56766;52.260;20.746;2022-09-13T07:56:45;100093.20;;;16.94
69545;BMP180;56766;52.260;20.746;2022-09-13T07:59:15;100081.40;;;17.10
69545;BMP180;56766;52.260;20.746;2022-09-13T08:01:49;100090.20;;;17.36
69545;BMP180;56766;52.260;20.746;2022-09-13T08:04:22;100095.60;;;17.52
69545;BMP180;56766;52.260;20.746;2022-09-13T08:06:50;100104.40;;;17.70
69545;BMP180;56766;52.260;20.746;2022-09-13T08:09:18;100101.00;;;17.90
69545;BMP180;56766;52.260;20.746;2022-09-13T08:11:50;100096.00;;;18.00
69545;BMP180;56766;52.260;20.746;2022-09-13T08:14:21;100095.80;;;18.10
69545;BMP180;56766;52.260;20.746;2022-09-13T08:16:54;100094.60;;;18.20
69545;BMP180;56766;52.260;20.746;2022-09-13T08:19:22;100094.40;;;18.40
69545;BMP180;56766;52.260;20.746;2022-09-13T08:21:48;100090.80;;;18.50
69545;BMP180;56766;52.260;20.746;2022-09-13T08:24:20;100089.40;;;18.60
69545;BMP180;56766;52.260;20.746;2022-09-13T08:26:48;100087.20;;;18.80
69545;BMP180;56766;52.260;20.746;2022-09-13T08:29:15;100082.40;;;18.98
69545;BMP180;56766;52.260;20.746;2022-09-13T08:31:43;100076.60;;;19.10
69545;BMP180;56766;52.260;20.746;2022-09-13T08:34:12;100077.80;;;19.20
69545;BMP180;56766;52.260;20.746;2022-09-13T08:36:41;100068.80;;;19.40
69545;BMP180;56766;52.260;20.746;2022-09-13T08:39:10;100061.40;;;19.50
69545;BMP180;56766;52.260;20.746;2022-09-13T08:44:41;100068.60;;;19.90
69545;BMP180;56766;52.260;20.746;2022-09-13T08:47:39;100064.20;;;20.10
69545;BMP180;56766;52.260;20.746;2022-09-13T08:50:28;100065.80;;;20.20
69545;BMP180;56766;52.260;20.746;2022-09-13T08:53:27;100066.00;;;20.20
69545;BMP180;56766;52.260;20.746;2022-09-13T08:56:12;100052.80;;;20.20
69545;BMP180;56766;52.260;20.746;2022-09-13T08:58:53;100055.00;;;20.30
69545;BMP180;56766;52.260;20.746;2022-09-13T09:07:14;100045.60;;;20.38
69545;BMP180;56766;52.260;20.746;2022-09-13T09:12:46;100040.00;;;20.88
69545;BMP180;56766;52.260;20.746;2022-09-13T09:18:40;100036.40;;;21.20
69545;BMP180;56766;52.260;20.746;2022-09-13T09:21:17;100032.40;;;21.20
69545;BMP180;56766;52.260;20.746;2022-09-13T09:23:55;100030.60;;;21.10
69545;BMP180;56766;52.260;20.746;2022-09-13T09:26:25;100029.40;;;21.10
69545;BMP180;56766;52.260;20.746;2022-09-13T09:29:22;100029.00;;;21.20
69545;BMP180;56766;52.260;20.746;2022-09-13T09:38:09;100013.00;;;21.54
69545;BMP180;56766;52.260;20.746;2022-09-13T09:40:40;100008.20;;;21.90
69545;BMP180;56766;52.260;20.746;2022-09-13T09:43:23;100010.00;;;22.10
69545;BMP180;56766;52.260;20.746;2022-09-13T09:45:55;100001.40;;;22.20
69545;BMP180;56766;52.260;20.746;2022-09-13T09:48:36;99991.00;;;22.20
69545;BMP180;56766;52.260;20.746;2022-09-13T09:51:08;99995.40;;;22.20
69545;BMP180;56766;52.260;20.746;2022-09-13T09:53:46;99999.40;;;22.38
69545;BMP180;56766;52.260;20.746;2022-09-13T09:56:29;99995.00;;;22.40
69545;BMP180;56766;52.260;20.746;2022-09-13T09:58:56;99997.00;;;22.42
69545;BMP180;56766;52.260;20.746;2022-09-13T10:06:40;99989.00;;;22.40
69545;BMP180;56766;52.260;20.746;2022-09-13T10:11:55;99984.60;;;22.30
69545;BMP180;56766;52.260;20.746;2022-09-13T10:14:42;99986.00;;;22.38
69545;BMP180;56766;52.260;20.746;2022-09-13T10:17:28;99987.00;;;22.40
69545;BMP180;56766;52.260;20.746;2022-09-13T10:20:20;99980.40;;;22.30
69545;BMP180;56766;52.260;20.746;2022-09-13T10:23:19;99977.20;;;22.40
69545;BMP180;56766;52.260;20.746;2022-09-13T10:26:05;99979.40;;;22.50
69545;BMP180;56766;52.260;20.746;2022-09-13T10:29:04;99971.80;;;22.54
69545;BMP180;56766;52.260;20.746;2022-09-13T10:31:38;99968.40;;;22.70
69545;BMP180;56766;52.260;20.746;2022-09-13T10:34:20;99967.00;;;22.72
69545;BMP180;56766;52.260;20.746;2022-09-13T10:36:56;99962.00;;;22.70
69545;BMP180;56766;52.260;20.746;2022-09-13T10:39:27;99962.60;;;22.80
69545;BMP180;56766;52.260;20.746;2022-09-13T10:42:06;99956.80;;;22.90
69545;BMP180;56766;52.260;20.746;2022-09-13T10:44:55;99957.00;;;23.00
69545;BMP180;56766;52.260;20.746;2022-09-13T10:47:43;99955.00;;;23.26
69545;BMP180;56766;52.260;20.746;2022-09-13T10:50:22;99954.20;;;23.50
69545;BMP180;56766;52.260;20.746;2022-09-13T10:52:56;99949.80;;;23.70
69545;BMP180;56766;52.260;20.746;2022-09-13T10:55:37;99945.80;;;23.90
69545;BMP180;56766;52.260;20.746;2022-09-13T11:09:32;99943.20;;;23.40
69545;BMP180;56766;52.260;20.746;2022-09-13T11:39:38;99918.60;;;23.20
69545;BMP180;56766;52.260;20.746;2022-09-13T11:42:32;99916.20;;;23.20
69545;BMP180;56766;52.260;20.746;2022-09-13T11:48:14;99910.60;;;23.20
69545;BMP180;56766;52.260;20.746;2022-09-13T11:51:04;99909.80;;;23.20
69545;BMP180;56766;52.260;20.746;2022-09-13T11:54:14;99902.40;;;23.20
69545;BMP180;56766;52.260;20.746;2022-09-13T11:56:56;99898.60;;;23.20
69545;BMP180;56766;52.260;20.746;2022-09-13T11:59:48;99890.60;;;23.20
69545;BMP180;56766;52.260;20.746;2022-09-13T12:02:59;99878.60;;;23.20
69545;BMP180;56766;52.260;20.746;2022-09-13T12:05:34;99875.20;;;23.16
69545;BMP180;56766;52.260;20.746;2022-09-13T12:08:40;99868.80;;;23.10
69545;BMP180;56766;52.260;20.746;2022-09-13T12:11:21;99866.00;;;23.10
69545;BMP180;56766;52.260;20.746;2022-09-13T12:13:59;99860.60;;;23.00
69545;BMP180;56766;52.260;20.746;2022-09-13T12:16:38;99854.00;;;22.90
69545;BMP180;56766;52.260;20.746;2022-09-13T12:19:22;99849.60;;;22.80
69545;BMP180;56766;52.260;20.746;2022-09-13T12:21:57;99843.00;;;22.70
69545;BMP180;56766;52.260;20.746;2022-09-13T12:24:58;99841.00;;;22.54
69545;BMP180;56766;52.260;20.746;2022-09-13T12:27:51;99841.60;;;22.40
69545;BMP180;56766;52.260;20.746;2022-09-13T12:30:27;99838.80;;;22.26
69545;BMP180;56766;52.260;20.746;2022-09-13T12:32:57;99841.40;;;22.20
69545;BMP180;56766;52.260;20.746;2022-09-13T12:41:31;99825.00;;;22.12
69545;BMP180;56766;52.260;20.746;2022-09-13T12:53:07;99828.20;;;22.00
69545;BMP180;56766;52.260;20.746;2022-09-13T12:56:08;99814.80;;;21.90
69545;BMP180;56766;52.260;20.746;2022-09-13T13:02:42;99801.80;;;21.58
69545;BMP180;56766;52.260;20.746;2022-09-13T13:05:34;99800.60;;;21.30
69545;BMP180;56766;52.260;20.746;2022-09-13T13:11:07;99794.20;;;20.90
69545;BMP180;56766;52.260;20.746;2022-09-13T13:13:41;99795.40;;;20.70
69545;BMP180;56766;52.260;20.746;2022-09-13T13:16:34;99797.00;;;20.60
69545;BMP180;56766;52.260;20.746;2022-09-13T13:19:32;99789.60;;;20.50
69545;BMP180;56766;52.260;20.746;2022-09-13T13:25:31;99781.00;;;20.70
69545;BMP180;56766;52.260;20.746;2022-09-13T13:27:58;99780.80;;;20.80
69545;BMP180;56766;52.260;20.746;2022-09-13T13:33:23;99789.00;;;20.90
69545;BMP180;56766;52.260;20.746;2022-09-13T13:35:52;99780.20;;;20.90
69545;BMP180;56766;52.260;20.746;2022-09-13T13:40:50;99774.40;;;21.00
69545;BMP180;56766;52.260;20.746;2022-09-13T13:43:29;99775.60;;;21.00
69545;BMP180;56766;52.260;20.746;2022-09-13T13:48:41;99781.60;;;20.90
69545;BMP180;56766;52.260;20.746;2022-09-13T13:54:27;99780.40;;;21.00
69545;BMP180;56766;52.260;20.746;2022-09-13T13:56:56;99776.40;;;21.10
69545;BMP180;56766;52.260;20.746;2022-09-13T13:59:31;99780.80;;;21.24
69545;BMP180;56766;52.260;20.746;2022-09-13T14:01:59;99772.60;;;21.30
69545;BMP180;56766;52.260;20.746;2022-09-13T14:24:48;99733.20;;;21.10
69545;BMP180;56766;52.260;20.746;2022-09-13T14:27:26;99727.40;;;21.00
69545;BMP180;56766;52.260;20.746;2022-09-13T14:30:15;99722.60;;;20.90
69545;BMP180;56766;52.260;20.746;2022-09-13T14:32:47;99723.20;;;20.80
69545;BMP180;56766;52.260;20.746;2022-09-13T14:35:30;99721.80;;;20.70
69545;BMP180;56766;52.260;20.746;2022-09-13T14:38:23;99720.00;;;20.60
69545;BMP180;56766;52.260;20.746;2022-09-13T14:40:58;99716.80;;;20.50
69545;BMP180;56766;52.260;20.746;2022-09-13T14:43:28;99720.40;;;20.40
69545;BMP180;56766;52.260;20.746;2022-09-13T14:46:14;99715.00;;;20.40
69545;BMP180;56766;52.260;20.746;2022-09-13T14:51:40;99699.80;;;20.20
69545;BMP180;56766;52.260;20.746;2022-09-13T14:54:34;99699.00;;;20.10
69545;BMP180;56766;52.260;20.746;2022-09-13T14:57:07;99696.80;;;20.02
69545;BMP180;56766;52.260;20.746;2022-09-13T14:59:46;99697.80;;;20.00
69545;BMP180;56766;52.260;20.746;2022-09-13T15:02:30;99695.60;;;19.90
69545;BMP180;56766;52.260;20.746;2022-09-13T15:04:59;99697.20;;;19.80
69545;BMP180;56766;52.260;20.746;2022-09-13T15:07:32;99688.00;;;19.70
69545;BMP180;56766;52.260;20.746;2022-09-13T15:13:09;99688.00;;;19.50
69545;BMP180;56766;52.260;20.746;2022-09-13T15:15:43;99688.00;;;19.40
69545;BMP180;56766;52.260;20.746;2022-09-13T15:20:48;99680.00;;;19.20
69545;BMP180;56766;52.260;20.746;2022-09-13T15:23:20;99685.40;;;19.10
69545;BMP180;56766;52.260;20.746;2022-09-13T15:26:18;99685.20;;;19.10
69545;BMP180;56766;52.260;20.746;2022-09-13T15:28:51;99679.80;;;19.00
69545;BMP180;56766;52.260;20.746;2022-09-13T15:31:33;99676.60;;;18.90
69545;BMP180;56766;52.260;20.746;2022-09-13T15:36:47;99675.40;;;18.80
69545;BMP180;56766;52.260;20.746;2022-09-13T15:39:20;99679.00;;;18.70
69545;BMP180;56766;52.260;20.746;2022-09-13T15:41:59;99681.00;;;18.70
69545;BMP180;56766;52.260;20.746;2022-09-13T15:44:28;99674.00;;;18.64
69545;BMP180;56766;52.260;20.746;2022-09-13T15:47:00;99670.60;;;18.60
69545;BMP180;56766;52.260;20.746;2022-09-13T15:49:30;99665.60;;;18.56
69545;BMP180;56766;52.260;20.746;2022-09-13T15:52:01;99666.80;;;18.50
69545;BMP180;56766;52.260;20.746;2022-09-13T15:54:41;99670.60;;;18.42
69545;BMP180;56766;52.260;20.746;2022-09-13T15:57:23;99670.80;;;18.40
69545;BMP180;56766;52.260;20.746;2022-09-13T15:59:51;99664.40;;;18.30
69545;BMP180;56766;52.260;20.746;2022-09-13T16:02:20;99666.40;;;18.20
69545;BMP180;56766;52.260;20.746;2022-09-13T16:04:49;99659.60;;;18.10
69545;BMP180;56766;52.260;20.746;2022-09-13T16:07:17;99660.20;;;18.10
69545;BMP180;56766;52.260;20.746;2022-09-13T16:09:44;99657.00;;;18.00
69545;BMP180;56766;52.260;20.746;2022-09-13T16:12:11;99653.40;;;17.90
69545;BMP180;56766;52.260;20.746;2022-09-13T16:14:39;99653.00;;;17.80
69545;BMP180;56766;52.260;20.746;2022-09-13T16:17:15;99650.00;;;17.70
69545;BMP180;56766;52.260;20.746;2022-09-13T16:19:42;99649.60;;;17.60
69545;BMP180;56766;52.260;20.746;2022-09-13T16:22:09;99645.80;;;17.60
69545;BMP180;56766;52.260;20.746;2022-09-13T16:24:35;99643.00;;;17.50
69545;BMP180;56766;52.260;20.746;2022-09-13T16:27:04;99639.00;;;17.40
69545;BMP180;56766;52.260;20.746;2022-09-13T16:29:31;99628.60;;;17.30
69545;BMP180;56766;52.260;20.746;2022-09-13T16:31:58;99627.20;;;17.20
69545;BMP180;56766;52.260;20.746;2022-09-13T16:34:27;99627.40;;;17.16
69545;BMP180;56766;52.260;20.746;2022-09-13T16:36:53;99630.20;;;17.10
69545;BMP180;56766;52.260;20.746;2022-09-13T16:39:20;99630.00;;;17.02
69545;BMP180;56766;52.260;20.746;2022-09-13T16:41:47;99628.80;;;17.00
69545;BMP180;56766;52.260;20.746;2022-09-13T16:44:14;99624.80;;;16.90
69545;BMP180;56766;52.260;20.746;2022-09-13T16:46:42;99628.40;;;16.90
69545;BMP180;56766;52.260;20.746;2022-09-13T16:49:09;99630.20;;;16.90
69545;BMP180;56766;52.260;20.746;2022-09-13T16:51:36;99631.80;;;16.88
69545;BMP180;56766;52.260;20.746;2022-09-13T16:54:04;99625.20;;;16.80
69545;BMP180;56766;52.260;20.746;2022-09-13T16:56:31;99628.80;;;16.80
69545;BMP180;56766;52.260;20.746;2022-09-13T16:58:58;99622.00;;;16.74
69545;BMP180;56766;52.260;20.746;2022-09-13T17:01:28;99627.40;;;16.70
69545;BMP180;56766;52.260;20.746;2022-09-13T17:03:56;99614.40;;;16.68
69545;BMP180;56766;52.260;20.746;2022-09-13T17:06:25;99615.60;;;16.60
69545;BMP180;56766;52.260;20.746;2022-09-13T17:09:00;99613.80;;;16.50
69545;BMP180;56766;52.260;20.746;2022-09-13T17:11:33;99617.20;;;16.50
69545;BMP180;56766;52.260;20.746;2022-09-13T17:14:04;99619.20;;;16.40
69545;BMP180;56766;52.260;20.746;2022-09-13T17:16:40;99618.80;;;16.40
69545;BMP180;56766;52.260;20.746;2022-09-13T17:19:15;99615.80;;;16.40
69545;BMP180;56766;52.260;20.746;2022-09-13T17:21:44;99618.80;;;16.40
69545;BMP180;56766;52.260;20.746;2022-09-13T17:24:13;99622.20;;;16.40
69545;BMP180;56766;52.260;20.746;2022-09-13T17:26:42;99616.00;;;16.42
69545;BMP180;56766;52.260;20.746;2022-09-13T17:29:13;99618.60;;;16.40
69545;BMP180;56766;52.260;20.746;2022-09-13T17:31:41;99614.00;;;16.42
69545;BMP180;56766;52.260;20.746;2022-09-13T17:34:12;99614.80;;;16.40
69545;BMP180;56766;52.260;20.746;2022-09-13T17:36:40;99611.20;;;16.40
69545;BMP180;56766;52.260;20.746;2022-09-13T17:39:09;99607.80;;;16.40
69545;BMP180;56766;52.260;20.746;2022-09-13T17:41:36;99608.40;;;16.40